Time;durP1;ratioP1;P1;durP2;ratioP2;P2;SDS_P1;SDS_P2;PMS_P1;PMS_P2;Temp;Humidity;BMP_temperature;BMP_pressure;BME280_temperature;BME280_humidity;BME280_pressure;Samples;Min_cycle;Max_cycle;Signal;HPM_P1;HPM_P2
2022/05/06 00:00:30;;;;;;;;;17.75;17.25;;;;;;;;5062260;28;45329;-75
2022/05/06 00:02:55;;;;;;;;;18.50;18.50;;;;;;;;5061151;28;45402;-76
2022/05/06 00:05:20;;;;;;;;;20.50;19.25;;;;;;;;5068019;28;45397;-76
2022/05/06 00:07:46;;;;;;;;;17.00;17.00;;;;;;;;5061175;28;45291;-75
2022/05/06 00:10:11;;;;;;;;;23.50;20.00;;;;;;;;5070281;28;45245;-75
2022/05/06 00:12:36;;;;;;;;;19.00;19.00;;;;;;;;5066969;28;45284;-74
2022/05/06 00:15:02;;;;;;;;;19.75;18.25;;;;;;;;5066188;28;45434;-75
2022/05/06 00:17:27;;;;;;;;;21.25;18.00;;;;;;;;5060025;28;45402;-76
2022/05/06 00:19:52;;;;;;;;;23.75;19.50;;;;;;;;5064992;28;45262;-76
2022/05/06 00:22:18;;;;;;;;;20.75;20.75;;;;;;;;5060022;28;45201;-76
2022/05/06 00:24:43;;;;;;;;;21.75;18.25;;;;;;;;5063651;28;45359;-77
2022/05/06 00:27:08;;;;;;;;;22.25;21.00;;;;;;;;5060010;28;45356;-76
2022/05/06 00:29:33;;;;;;;;;20.50;19.75;;;;;;;;5065430;28;46085;-76
2022/05/06 00:31:59;;;;;;;;;21.75;18.75;;;;;;;;5054033;28;45216;-76
2022/05/06 00:34:24;;;;;;;;;27.75;24.25;;;;;;;;5064097;28;45248;-76
2022/05/06 00:36:50;;;;;;;;;22.00;21.00;;;;;;;;5068178;28;45225;-76
2022/05/06 00:39:15;;;;;;;;;23.75;20.25;;;;;;;;5063794;28;45426;-76
2022/05/06 00:41:40;;;;;;;;;20.50;18.75;;;;;;;;5058034;28;45385;-76
2022/05/06 00:44:09;;;;;;;;;29.00;22.00;;;;;;;;5064792;28;45380;-76
2022/05/06 00:46:38;;;;;;;;;20.50;19.50;;;;;;;;5058329;28;46176;-75
2022/05/06 00:49:03;;;;;;;;;19.25;17.00;;;;;;;;5063598;28;46054;-76
2022/05/06 00:51:29;;;;;;;;;18.50;16.75;;;;;;;;5063371;28;45434;-76
2022/05/06 00:53:55;;;;;;;;;24.00;19.75;;;;;;;;5057099;28;45351;-76
2022/05/06 00:56:24;;;;;;;;;19.25;18.00;;;;;;;;5057606;28;45236;-75
2022/05/06 00:58:50;;;;;;;;;17.00;17.00;;;;;;;;5064151;28;46274;-75
2022/05/06 01:01:15;;;;;;;;;19.25;16.00;;;;;;;;5064845;28;45295;-75
2022/05/06 01:03:40;;;;;;;;;20.50;17.75;;;;;;;;5060483;28;45355;-75
2022/05/06 01:06:13;;;;;;;;;20.25;17.50;;;;;;;;5065966;28;45588;-75
2022/05/06 01:08:39;;;;;;;;;18.25;17.00;;;;;;;;5061512;28;45291;-75
2022/05/06 01:11:05;;;;;;;;;17.75;16.75;;;;;;;;5065816;28;45363;-75
2022/05/06 01:13:30;;;;;;;;;18.00;16.75;;;;;;;;5059620;28;45426;-75
2022/05/06 01:15:56;;;;;;;;;22.75;20.00;;;;;;;;5066634;28;45351;-75
2022/05/06 01:18:22;;;;;;;;;24.25;19.50;;;;;;;;5057430;28;47366;-75
2022/05/06 01:20:51;;;;;;;;;23.00;20.00;;;;;;;;5064217;28;45235;-75
2022/05/06 01:23:17;;;;;;;;;20.75;17.25;;;;;;;;5060859;28;45568;-75
2022/05/06 01:25:42;;;;;;;;;19.00;18.00;;;;;;;;5062820;28;46980;-74
2022/05/06 01:28:08;;;;;;;;;19.00;17.00;;;;;;;;5061319;28;45382;-76
2022/05/06 01:30:36;;;;;;;;;20.00;19.00;;;;;;;;5061302;27;45333;-76
2022/05/06 01:33:03;;;;;;;;;22.75;19.00;;;;;;;;5059798;28;45303;-76
2022/05/06 01:35:29;;;;;;;;;21.50;19.00;;;;;;;;5060304;28;47165;-76
2022/05/06 01:37:58;;;;;;;;;24.50;20.75;;;;;;;;5058107;28;47129;-76
2022/05/06 01:40:24;;;;;;;;;26.75;23.50;;;;;;;;5061003;28;46293;-76
2022/05/06 01:42:50;;;;;;;;;27.00;22.00;;;;;;;;5058581;28;45276;-76
2022/05/06 01:45:16;;;;;;;;;21.75;20.25;;;;;;;;5057614;28;45482;-76
2022/05/06 01:47:42;;;;;;;;;25.00;21.00;;;;;;;;5059194;28;45248;-77
2022/05/06 01:50:09;;;;;;;;;22.25;21.00;;;;;;;;5065993;28;45922;-76
2022/05/06 01:52:35;;;;;;;;;23.25;23.25;;;;;;;;5060649;28;45470;-76
2022/05/06 01:55:01;;;;;;;;;31.25;25.00;;;;;;;;5065981;28;45905;-76
2022/05/06 01:57:26;;;;;;;;;32.00;24.50;;;;;;;;5061392;28;46327;-77
2022/05/06 01:59:51;;;;;;;;;25.00;24.00;;;;;;;;5066043;28;45437;-76
2022/05/06 02:02:16;;;;;;;;;31.75;29.00;;;;;;;;5062269;28;45356;-76
2022/05/06 02:07:25;;;;;;;;;30.00;25.25;;;;;;;;5061621;28;45222;-73
2022/05/06 02:09:50;;;;;;;;;32.50;26.50;;;;;;;;5072468;28;45362;-75
2022/05/06 02:12:16;;;;;;;;;26.75;23.50;;;;;;;;5061835;28;45458;-75
2022/05/06 02:14:41;;;;;;;;;28.25;23.00;;;;;;;;5069814;28;45396;-75
2022/05/06 02:17:06;;;;;;;;;29.00;27.75;;;;;;;;5061993;28;46312;-75
2022/05/06 02:19:31;;;;;;;;;31.00;29.25;;;;;;;;5067286;28;45260;-74
2022/05/06 02:21:57;;;;;;;;;33.75;29.25;;;;;;;;5061848;28;45267;-75
2022/05/06 02:24:22;;;;;;;;;30.00;26.75;;;;;;;;5066507;28;45566;-75
2022/05/06 02:26:48;;;;;;;;;31.00;27.50;;;;;;;;5059812;28;47185;-75
2022/05/06 02:29:13;;;;;;;;;32.00;25.50;;;;;;;;5066743;28;45305;-74
2022/05/06 02:34:22;;;;;;;;;28.75;26.75;;;;;;;;5066556;28;45410;-74
2022/05/06 02:36:47;;;;;;;;;30.25;25.75;;;;;;;;5061222;28;45318;-74
2022/05/06 02:39:13;;;;;;;;;25.50;23.00;;;;;;;;5066637;28;45432;-75
2022/05/06 02:41:38;;;;;;;;;26.00;22.00;;;;;;;;5061258;28;45344;-74
2022/05/06 02:44:06;;;;;;;;;31.00;29.50;;;;;;;;5065152;28;45264;-75
2022/05/06 02:46:33;;;;;;;;;37.50;34.75;;;;;;;;5061355;28;45268;-74
2022/05/06 02:48:59;;;;;;;;;41.50;30.50;;;;;;;;5063289;28;45415;-75
2022/05/06 02:51:24;;;;;;;;;31.00;28.25;;;;;;;;5064957;28;45253;-75
2022/05/06 02:53:49;;;;;;;;;31.00;26.25;;;;;;;;5062760;28;46138;-74
2022/05/06 02:56:14;;;;;;;;;31.75;30.25;;;;;;;;5063174;28;45319;-74
2022/05/06 02:58:39;;;;;;;;;28.00;26.50;;;;;;;;5062298;28;45347;-74
2022/05/06 03:01:05;;;;;;;;;33.75;28.50;;;;;;;;5067979;28;45321;-75
2022/05/06 03:03:33;;;;;;;;;32.25;28.25;;;;;;;;5061986;28;45486;-75
2022/05/06 03:05:58;;;;;;;;;36.00;29.00;;;;;;;;5069616;28;45463;-74
2022/05/06 03:08:24;;;;;;;;;33.25;33.00;;;;;;;;5062120;28;45399;-74
2022/05/06 03:10:49;;;;;;;;;38.75;33.25;;;;;;;;5069246;28;45438;-74
2022/05/06 03:13:14;;;;;;;;;30.75;29.50;;;;;;;;5062968;28;45406;-74
2022/05/06 03:15:42;;;;;;;;;35.25;32.25;;;;;;;;5062463;28;45942;-75
2022/05/06 03:18:07;;;;;;;;;35.50;32.00;;;;;;;;5060633;28;45224;-74
2022/05/06 03:20:32;;;;;;;;;37.50;33.50;;;;;;;;5061116;28;45635;-75
2022/05/06 03:22:58;;;;;;;;;40.25;35.25;;;;;;;;5061331;28;45319;-74
2022/05/06 03:25:23;;;;;;;;;40.75;34.75;;;;;;;;5064647;28;46178;-74
2022/05/06 03:28:07;;;;;;;;;41.00;32.50;;;;;;;;5060942;28;45272;-74
2022/05/06 03:30:38;;;;;;;;;37.25;33.00;;;;;;;;5055748;28;45239;-75
2022/05/06 03:33:03;;;;;;;;;30.25;27.00;;;;;;;;5060303;28;46265;-75
2022/05/06 03:35:29;;;;;;;;;30.75;28.50;;;;;;;;5059272;28;46949;-74
2022/05/06 03:37:54;;;;;;;;;38.25;33.00;;;;;;;;5060916;28;45469;-74
2022/05/06 03:40:20;;;;;;;;;32.00;30.00;;;;;;;;5059819;28;45580;-73
2022/05/06 03:42:45;;;;;;;;;33.50;31.50;;;;;;;;5060791;28;45349;-73
2022/05/06 03:45:11;;;;;;;;;34.25;30.25;;;;;;;;5068019;28;48353;-74
2022/05/06 03:47:36;;;;;;;;;33.50;32.50;;;;;;;;5060565;28;45509;-73
2022/05/06 03:52:49;;;;;;;;;42.25;33.00;;;;;;;;5061029;28;45708;-75
2022/05/06 03:55:15;;;;;;;;;38.00;33.75;;;;;;;;5064697;28;45344;-75
2022/05/06 03:57:42;;;;;;;;;36.50;31.25;;;;;;;;5060866;28;45340;-74
2022/05/06 04:00:08;;;;;;;;;31.25;28.50;;;;;;;;5060605;28;45565;-75
2022/05/06 04:02:35;;;;;;;;;25.50;22.75;;;;;;;;5059722;28;45502;-75
2022/05/06 04:05:00;;;;;;;;;28.00;26.25;;;;;;;;5061032;28;46097;-73
2022/05/06 04:07:25;;;;;;;;;26.75;25.25;;;;;;;;5059841;28;45333;-74
2022/05/06 04:09:51;;;;;;;;;28.25;25.00;;;;;;;;5070433;28;45241;-73
2022/05/06 04:12:16;;;;;;;;;28.50;26.75;;;;;;;;5059523;28;45537;-74
2022/05/06 04:14:41;;;;;;;;;28.50;24.50;;;;;;;;5067307;28;45390;-73
2022/05/06 04:17:06;;;;;;;;;32.75;28.00;;;;;;;;5060029;28;45305;-74
2022/05/06 04:19:32;;;;;;;;;31.50;30.25;;;;;;;;5064721;28;45579;-74
2022/05/06 04:24:41;;;;;;;;;33.25;28.75;;;;;;;;5066736;28;45473;-73
2022/05/06 04:27:06;;;;;;;;;31.50;27.75;;;;;;;;5059668;28;45285;-74
2022/05/06 04:29:31;;;;;;;;;31.25;27.50;;;;;;;;5064123;28;45302;-73
2022/05/06 04:31:57;;;;;;;;;27.25;21.75;;;;;;;;5068869;28;45223;-73
2022/05/06 04:34:22;;;;;;;;;30.50;25.75;;;;;;;;5058288;28;47426;-74
2022/05/06 04:36:47;;;;;;;;;29.50;26.00;;;;;;;;5058950;28;45306;-75
2022/05/06 04:39:12;;;;;;;;;30.50;26.00;;;;;;;;5059585;28;45540;-75
2022/05/06 04:41:38;;;;;;;;;29.25;28.25;;;;;;;;5058638;28;45502;-74
2022/05/06 04:44:03;;;;;;;;;25.25;22.50;;;;;;;;5059405;28;45334;-75
2022/05/06 04:46:28;;;;;;;;;29.75;26.00;;;;;;;;5058753;28;45154;-74
2022/05/06 04:48:53;;;;;;;;;25.50;22.00;;;;;;;;5059414;28;45346;-75
2022/05/06 04:51:19;;;;;;;;;31.00;23.50;;;;;;;;5058576;28;45292;-74
2022/05/06 04:53:44;;;;;;;;;29.50;27.00;;;;;;;;5059326;28;46204;-74
2022/05/06 04:56:10;;;;;;;;;31.75;30.25;;;;;;;;5055823;28;45252;-73
2022/05/06 04:58:35;;;;;;;;;27.00;24.75;;;;;;;;5058172;28;45453;-74
2022/05/06 05:01:00;;;;;;;;;24.50;22.50;;;;;;;;5058546;28;45225;-73
2022/05/06 05:03:25;;;;;;;;;27.75;21.25;;;;;;;;5059019;28;46721;-73
2022/05/06 05:05:50;;;;;;;;;27.75;22.50;;;;;;;;5048935;28;45208;-73
2022/05/06 05:08:16;;;;;;;;;30.00;28.50;;;;;;;;5058176;28;45280;-74
2022/05/06 05:10:41;;;;;;;;;26.75;23.75;;;;;;;;5058909;28;45387;-74
2022/05/06 05:13:06;;;;;;;;;28.00;25.50;;;;;;;;5058635;28;48145;-74
2022/05/06 05:15:32;;;;;;;;;34.00;29.75;;;;;;;;5062026;28;45270;-74
2022/05/06 05:17:57;;;;;;;;;35.25;25.50;;;;;;;;5059581;28;45298;-74
2022/05/06 05:20:22;;;;;;;;;29.00;25.50;;;;;;;;5063195;28;45270;-74
2022/05/06 05:22:48;;;;;;;;;27.75;26.75;;;;;;;;5059032;28;46429;-74
2022/05/06 05:25:13;;;;;;;;;28.25;24.75;;;;;;;;5057618;28;45430;-74
2022/05/06 05:27:38;;;;;;;;;33.00;31.00;;;;;;;;5057791;28;45233;-74
2022/05/06 05:30:05;;;;;;;;;33.25;30.00;;;;;;;;5062403;28;47110;-74
2022/05/06 05:32:32;;;;;;;;;32.50;29.25;;;;;;;;5057327;28;46600;-74
2022/05/06 05:34:57;;;;;;;;;38.50;29.50;;;;;;;;5055335;28;45430;-74
2022/05/06 05:37:22;;;;;;;;;30.00;28.75;;;;;;;;5058137;28;46818;-75
2022/05/06 05:39:48;;;;;;;;;34.00;31.75;;;;;;;;5058771;28;46554;-75
2022/05/06 05:42:19;;;;;;;;;31.00;27.25;;;;;;;;5057871;28;45773;-75
2022/05/06 05:50:12;;;;;;;;;27.50;27.00;;;;;;;;5057561;28;45417;-74
2022/05/06 05:52:37;;;;;;;;;25.00;23.00;;;;;;;;5058552;28;45909;-73
2022/05/06 05:55:03;;;;;;;;;31.00;28.50;;;;;;;;5061620;28;45347;-75
2022/05/06 05:57:28;;;;;;;;;28.25;25.00;;;;;;;;5058147;28;45522;-74
2022/05/06 05:59:54;;;;;;;;;31.25;26.00;;;;;;;;5058993;28;46177;-74
2022/05/06 06:02:19;;;;;;;;;28.25;24.25;;;;;;;;5058292;28;46099;-73
2022/05/06 06:04:45;;;;;;;;;26.75;26.25;;;;;;;;5067692;28;45415;-73
2022/05/06 06:07:10;;;;;;;;;25.75;24.25;;;;;;;;5058523;28;45282;-73
2022/05/06 06:09:35;;;;;;;;;33.75;29.50;;;;;;;;5059721;28;45937;-73
2022/05/06 06:12:00;;;;;;;;;36.50;30.50;;;;;;;;5058216;28;46322;-74
2022/05/06 06:14:26;;;;;;;;;32.75;31.50;;;;;;;;5059934;28;45380;-75
2022/05/06 06:16:51;;;;;;;;;33.50;31.25;;;;;;;;5058020;28;45442;-75
2022/05/06 06:19:16;;;;;;;;;28.25;26.25;;;;;;;;5065732;28;45362;-76
2022/05/06 06:21:42;;;;;;;;;35.00;29.50;;;;;;;;5056214;28;46095;-75
2022/05/06 06:24:08;;;;;;;;;32.50;29.50;;;;;;;;5064849;28;45344;-76
2022/05/06 06:26:33;;;;;;;;;33.00;28.00;;;;;;;;5057937;28;45244;-75
2022/05/06 06:28:58;;;;;;;;;35.50;30.25;;;;;;;;5063383;28;45378;-75
2022/05/06 06:31:24;;;;;;;;;38.25;30.50;;;;;;;;5057698;28;45214;-75
2022/05/06 06:33:49;;;;;;;;;31.75;27.00;;;;;;;;5060383;28;45313;-75
2022/05/06 06:36:15;;;;;;;;;30.75;27.50;;;;;;;;5058277;28;45192;-75
2022/05/06 06:38:40;;;;;;;;;32.75;27.00;;;;;;;;5066550;28;45437;-75
2022/05/06 06:41:05;;;;;;;;;33.00;29.75;;;;;;;;5060862;28;46349;-75
2022/05/06 06:43:30;;;;;;;;;30.75;29.25;;;;;;;;5066155;28;45382;-75
2022/05/06 06:45:58;;;;;;;;;32.75;31.00;;;;;;;;5057005;28;45292;-73
2022/05/06 06:48:24;;;;;;;;;30.00;27.50;;;;;;;;5049102;28;45385;-73
2022/05/06 06:50:50;;;;;;;;;31.75;30.00;;;;;;;;5060173;28;45336;-74
2022/05/06 06:53:15;;;;;;;;;30.50;26.50;;;;;;;;5063401;28;45365;-74
2022/05/06 06:55:40;;;;;;;;;31.50;29.00;;;;;;;;5063173;28;45500;-74
2022/05/06 06:58:06;;;;;;;;;34.25;31.75;;;;;;;;5062227;28;45522;-74
2022/05/06 07:00:31;;;;;;;;;33.00;28.50;;;;;;;;5062153;28;45349;-75
2022/05/06 07:02:57;;;;;;;;;36.25;32.00;;;;;;;;5061885;28;45525;-75
2022/05/06 07:05:22;;;;;;;;;36.75;29.75;;;;;;;;5069340;28;45501;-76
2022/05/06 07:13:23;;;;;;;;;31.50;29.75;;;;;;;;5034043;28;45464;-75
2022/05/06 07:15:48;;;;;;;;;31.50;28.00;;;;;;;;5068062;28;45362;-74
2022/05/06 07:18:14;;;;;;;;;33.25;31.00;;;;;;;;5062908;28;45321;-74
2022/05/06 07:20:40;;;;;;;;;31.00;27.75;;;;;;;;5063270;28;45428;-75
2022/05/06 07:23:05;;;;;;;;;33.75;30.00;;;;;;;;5061913;28;45358;-76
2022/05/06 07:25:30;;;;;;;;;34.50;29.75;;;;;;;;5060484;28;45423;-77
2022/05/06 07:27:56;;;;;;;;;30.50;28.75;;;;;;;;5061005;28;45590;-76
2022/05/06 07:30:21;;;;;;;;;33.25;30.00;;;;;;;;5064784;28;45281;-75
2022/05/06 07:32:47;;;;;;;;;30.00;30.00;;;;;;;;5057214;28;44979;-75
2022/05/06 07:35:12;;;;;;;;;31.50;30.00;;;;;;;;5059493;28;45735;-75
2022/05/06 07:37:37;;;;;;;;;32.00;28.25;;;;;;;;5059291;28;45489;-75
2022/05/06 07:40:03;;;;;;;;;28.67;25.67;;;;;;;;5067447;28;48617;-75
2022/05/06 07:42:30;;;;;;;;;36.00;30.75;;;;;;;;5061731;28;45233;-76
2022/05/06 07:44:56;;;;;;;;;32.00;29.75;;;;;;;;5062667;28;45265;-76
2022/05/06 07:47:21;;;;;;;;;30.67;27.33;;;;;;;;5057687;28;45237;-76
2022/05/06 07:49:47;;;;;;;;;30.00;27.00;;;;;;;;5064340;28;45440;-75
2022/05/06 07:52:12;;;;;;;;;29.00;26.00;;;;;;;;5059382;28;45487;-76
2022/05/06 07:54:37;;;;;;;;;24.67;23.00;;;;;;;;5069832;28;45456;-75
2022/05/06 07:57:03;;;;;;;;;30.33;28.00;;;;;;;;5058630;28;45646;-75
2022/05/06 07:59:28;;;;;;;;;28.00;26.00;;;;;;;;5059553;28;47174;-76
2022/05/06 08:04:37;;;;;;;;;25.00;24.00;;;;;;;;5068755;28;45487;-75
2022/05/06 08:07:03;;;;;;;;;27.33;24.67;;;;;;;;5059577;28;45808;-76
2022/05/06 08:09:28;;;;;;;;;33.33;29.00;;;;;;;;5067985;28;45399;-75
2022/05/06 08:11:53;;;;;;;;;32.00;27.00;;;;;;;;5058904;28;45807;-76
2022/05/06 08:14:19;;;;;;;;;28.00;25.00;;;;;;;;5064680;28;45395;-76
2022/05/06 08:16:45;;;;;;;;;26.00;23.33;;;;;;;;5050026;28;45528;-76
2022/05/06 08:19:10;;;;;;;;;24.33;21.67;;;;;;;;5053310;28;46098;-76
2022/05/06 08:21:35;;;;;;;;;24.67;22.33;;;;;;;;5058642;28;45359;-75
2022/05/06 08:24:00;;;;;;;;;25.00;21.33;;;;;;;;5064262;28;45725;-76
2022/05/06 08:26:26;;;;;;;;;22.00;21.33;;;;;;;;5058388;28;45286;-73
2022/05/06 08:28:51;;;;;;;;;15.67;15.67;;;;;;;;5095836;27;47257;-71
2022/05/06 08:31:16;;;;;;;;;17.33;14.00;;;;;;;;5059235;28;45289;-73
2022/05/06 08:33:41;;;;;;;;;15.33;13.67;;;;;;;;5064570;28;45425;-73
2022/05/06 08:36:06;;;;;;;;;17.00;15.00;;;;;;;;5058949;28;45303;-79
2022/05/06 08:38:32;;;;;;;;;15.67;14.67;;;;;;;;5062820;28;47178;-79
2022/05/06 08:40:59;;;;;;;;;14.33;13.00;;;;;;;;5057360;28;45270;-78
2022/05/06 08:43:24;;;;;;;;;16.00;14.00;;;;;;;;5061689;28;45392;-77
2022/05/06 08:51:20;;;;;;;;;15.33;13.33;;;;;;;;5056345;28;45313;-80
2022/05/06 08:53:45;;;;;;;;;13.00;11.67;;;;;;;;5061139;28;45758;-80
2022/05/06 08:56:11;;;;;;;;;10.33;10.33;;;;;;;;5060402;28;45248;-79
2022/05/06 08:58:40;;;;;;;;;16.33;13.33;;;;;;;;5059837;28;46251;-78
2022/05/06 09:01:06;;;;;;;;;12.50;10.00;;;;;;;;5058515;28;45336;-78
2022/05/06 09:03:31;;;;;;;;;12.33;9.67;;;;;;;;5058575;28;45452;-79
2022/05/06 09:05:58;;;;;;;;;10.67;10.67;;;;;;;;5057714;28;45464;-80
2022/05/06 09:08:33;;;;;;;;;12.25;11.25;;;;;;;;5057880;28;46838;-80
2022/05/06 09:11:00;;;;;;;;;8.50;6.50;;;;;;;;5057931;28;46256;-79
2022/05/06 09:13:26;;;;;;;;;8.25;8.00;;;;;;;;5061679;28;45675;-79
2022/05/06 09:18:36;;;;;;;;;8.00;8.00;;;;;;;;5063519;28;45741;-79
2022/05/06 09:21:11;;;;;;;;;7.75;7.25;;;;;;;;5058506;28;45512;-78
2022/05/06 09:23:36;;;;;;;;;8.75;8.75;;;;;;;;5063929;28;45264;-76
2022/05/06 09:26:01;;;;;;;;;7.00;7.00;;;;;;;;5058200;28;45589;-79
2022/05/06 09:28:28;;;;;;;;;6.75;6.50;;;;;;;;5062974;28;45414;-80
2022/05/06 09:31:06;;;;;;;;;6.25;6.25;;;;;;;;5057971;28;45622;-82
2022/05/06 09:33:36;;;;;;;;;9.75;7.50;;;;;;;;5063652;28;45383;-80
2022/05/06 09:36:20;;;;;;;;;8.75;8.25;;;;;;;;5057340;28;45680;-80
2022/05/06 09:39:04;;;;;;;;;7.00;6.50;;;;;;;;5064221;28;45557;-80
2022/05/06 09:41:30;;;;;;;;;5.50;5.50;;;;;;;;5058589;28;45311;-77
2022/05/06 09:43:59;;;;;;;;;6.00;6.00;;;;;;;;5064613;28;45246;-77
2022/05/06 09:46:25;;;;;;;;;7.00;6.75;;;;;;;;5062489;28;46136;-77
2022/05/06 09:48:57;;;;;;;;;9.75;6.00;;;;;;;;5060328;28;48309;-78
2022/05/06 09:51:26;;;;;;;;;5.80;5.80;;;;;;;;5060152;28;45973;-75
2022/05/06 09:53:52;;;;;;;;;9.00;7.75;;;;;;;;5060709;28;45415;-75
2022/05/06 09:56:19;;;;;;;;;7.75;7.75;;;;;;;;5056105;28;46349;-75
2022/05/06 09:58:45;;;;;;;;;7.00;7.00;;;;;;;;5058187;28;45317;-76
2022/05/06 10:01:10;;;;;;;;;5.75;5.75;;;;;;;;5057344;28;45220;-77
2022/05/06 10:03:36;;;;;;;;;6.25;6.25;;;;;;;;5050598;28;44824;-76
2022/05/06 10:06:02;;;;;;;;;7.00;6.75;;;;;;;;5056435;28;45991;-75
2022/05/06 10:08:30;;;;;;;;;7.00;7.00;;;;;;;;5057197;28;45331;-76
2022/05/06 10:10:58;;;;;;;;;7.00;7.00;;;;;;;;5057035;28;45306;-75
2022/05/06 10:13:25;;;;;;;;;5.50;5.50;;;;;;;;5063384;28;45450;-76
2022/05/06 10:15:51;;;;;;;;;0.75;0.00;;;;;;;;5067105;28;45290;-76
2022/05/06 10:18:33;;;;;;;;;4.60;4.00;;;;;;;;5064098;28;46821;-75
2022/05/06 10:20:59;;;;;;;;;7.20;6.00;;;;;;;;5061622;28;45229;-76
2022/05/06 10:23:41;;;;;;;;;6.75;6.75;;;;;;;;5063685;28;45372;-77
2022/05/06 10:26:06;;;;;;;;;9.00;6.25;;;;;;;;5057940;28;45364;-74
2022/05/06 10:34:13;;;;;;;;;8.00;7.00;;;;;;;;5066510;28;45456;-76
2022/05/06 10:36:48;;;;;;;;;8.00;6.25;;;;;;;;5047225;28;45228;-75
2022/05/06 10:39:26;;;;;;;;;8.40;7.20;;;;;;;;5064985;28;46258;-75
2022/05/06 10:41:58;;;;;;;;;8.00;6.00;;;;;;;;5063898;28;45392;-73
2022/05/06 10:44:36;;;;;;;;;8.00;7.20;;;;;;;;5070965;28;45268;-74
2022/05/06 10:47:03;;;;;;;;;10.60;7.00;;;;;;;;5061363;28;45194;-75
2022/05/06 10:49:34;;;;;;;;;9.40;9.40;;;;;;;;5064216;28;46245;-74
2022/05/06 10:52:24;;;;;;;;;9.40;9.40;;;;;;;;5060509;28;45311;-74
2022/05/06 10:54:59;;;;;;;;;8.40;7.20;;;;;;;;5064448;28;45343;-74
2022/05/06 10:57:26;;;;;;;;;6.20;6.20;;;;;;;;5060957;28;45446;-74
2022/05/06 10:59:55;;;;;;;;;5.40;5.00;;;;;;;;5062625;28;45542;-75
2022/05/06 11:02:25;;;;;;;;;6.60;5.80;;;;;;;;5059533;28;45232;-75
2022/05/06 11:05:01;;;;;;;;;9.60;9.60;;;;;;;;5048153;28;45545;-74
2022/05/06 11:07:27;;;;;;;;;8.60;6.80;;;;;;;;5060743;28;45309;-75
2022/05/06 11:09:53;;;;;;;;;8.20;7.00;;;;;;;;5051175;28;45384;-74
2022/05/06 11:12:37;;;;;;;;;7.50;5.75;;;;;;;;5069536;28;45242;-74
2022/05/06 11:15:04;;;;;;;;;4.20;4.20;;;;;;;;5055809;28;45442;-74
2022/05/06 11:17:31;;;;;;;;;4.80;4.80;;;;;;;;5060454;28;45301;-75
2022/05/06 11:19:57;;;;;;;;;4.20;4.20;;;;;;;;5053971;28;45357;-74
2022/05/06 11:22:23;;;;;;;;;4.75;4.00;;;;;;;;5059660;28;45691;-75
2022/05/06 11:24:49;;;;;;;;;2.40;2.40;;;;;;;;5051166;28;45501;-75
2022/05/06 11:27:15;;;;;;;;;7.25;5.25;;;;;;;;5059457;28;45434;-75
2022/05/06 11:29:55;;;;;;;;;5.00;5.00;;;;;;;;5058059;28;45506;-74
2022/05/06 11:32:21;;;;;;;;;9.00;8.60;;;;;;;;5058208;28;45206;-75
2022/05/06 11:34:52;;;;;;;;;5.25;5.25;;;;;;;;5056965;28;45372;-74
2022/05/06 11:37:24;;;;;;;;;3.60;3.20;;;;;;;;5059707;28;45538;-75
2022/05/06 11:39:50;;;;;;;;;4.80;4.80;;;;;;;;5056430;28;46811;-75
2022/05/06 11:42:23;;;;;;;;;6.40;6.20;;;;;;;;5059574;28;45448;-76
2022/05/06 11:47:41;;;;;;;;;4.00;4.00;;;;;;;;5058577;28;45221;-75
2022/05/06 11:50:06;;;;;;;;;6.25;4.00;;;;;;;;5057288;28;46151;-75
2022/05/06 11:52:32;;;;;;;;;5.75;4.50;;;;;;;;5059447;28;45360;-75
2022/05/06 11:54:58;;;;;;;;;5.75;5.75;;;;;;;;5057812;28;45257;-75
2022/05/06 11:57:23;;;;;;;;;6.00;5.25;;;;;;;;5059077;28;45454;-75
2022/05/06 11:59:48;;;;;;;;;4.25;4.25;;;;;;;;5057486;28;45836;-75
2022/05/06 12:02:14;;;;;;;;;4.00;4.00;;;;;;;;5060003;28;45655;-74
2022/05/06 12:04:40;;;;;;;;;3.80;3.80;;;;;;;;5047857;28;45670;-74
2022/05/06 12:07:05;;;;;;;;;5.75;5.75;;;;;;;;5060055;28;45579;-75
2022/05/06 12:09:40;;;;;;;;;5.25;4.25;;;;;;;;5049094;28;47053;-76
2022/05/06 12:12:10;;;;;;;;;5.00;4.40;;;;;;;;5059614;28;45373;-77
2022/05/06 12:14:36;;;;;;;;;5.00;4.20;;;;;;;;5049063;28;45583;-77
2022/05/06 12:17:02;;;;;;;;;4.75;4.75;;;;;;;;5059643;28;45610;-73
2022/05/06 12:19:38;;;;;;;;;3.00;3.00;;;;;;;;5049819;28;47469;-77
2022/05/06 12:22:13;;;;;;;;;4.00;4.00;;;;;;;;5057756;28;45955;-77
2022/05/06 12:24:46;;;;;;;;;4.40;2.80;;;;;;;;5051715;28;45501;-77
2022/05/06 12:27:11;;;;;;;;;3.00;3.00;;;;;;;;5051925;28;45430;-76
2022/05/06 12:29:40;;;;;;;;;3.00;3.00;;;;;;;;5051359;28;45456;-77
2022/05/06 12:32:06;;;;;;;;;9.80;8.00;;;;;;;;5052121;28;45391;-77
2022/05/06 12:34:32;;;;;;;;;3.00;3.00;;;;;;;;5056133;28;45401;-77
2022/05/06 12:37:10;;;;;;;;;3.50;1.75;;;;;;;;5059302;28;45317;-76
2022/05/06 12:39:40;;;;;;;;;4.00;4.00;;;;;;;;5055389;28;46157;-75
2022/05/06 12:42:12;;;;;;;;;3.00;3.00;;;;;;;;5058752;28;45661;-75
2022/05/06 12:44:38;;;;;;;;;3.20;3.20;;;;;;;;5053492;28;45301;-75
2022/05/06 12:47:12;;;;;;;;;2.00;2.00;;;;;;;;5055270;28;45389;-76
2022/05/06 12:49:40;;;;;;;;;2.60;2.60;;;;;;;;5054606;28;46201;-76
2022/05/06 12:52:08;;;;;;;;;1.80;1.20;;;;;;;;5057616;28;45362;-72
2022/05/06 12:54:34;;;;;;;;;3.00;3.00;;;;;;;;5055809;28;45379;-74
2022/05/06 12:57:00;;;;;;;;;1.20;1.20;;;;;;;;5057102;28;45970;-75
2022/05/06 12:59:26;;;;;;;;;3.25;3.00;;;;;;;;5056686;28;46030;-75
2022/05/06 13:01:51;;;;;;;;;1.60;1.60;;;;;;;;5057455;28;45153;-73
2022/05/06 13:04:17;;;;;;;;;3.00;3.00;;;;;;;;5051353;28;45757;-75
2022/05/06 13:06:42;;;;;;;;;2.00;2.00;;;;;;;;5055966;28;45558;-76
2022/05/06 13:09:08;;;;;;;;;2.75;2.75;;;;;;;;5051274;28;45364;-75
2022/05/06 13:11:34;;;;;;;;;2.20;2.20;;;;;;;;5071011;28;45394;-75
2022/05/06 13:13:59;;;;;;;;;2.00;2.00;;;;;;;;5053106;28;45276;-75
2022/05/06 13:16:25;;;;;;;;;3.00;3.00;;;;;;;;5055823;28;45387;-74
2022/05/06 13:18:52;;;;;;;;;2.25;2.25;;;;;;;;5052132;28;45413;-75
2022/05/06 13:21:17;;;;;;;;;2.20;1.00;;;;;;;;5057274;28;45375;-75
2022/05/06 13:23:42;;;;;;;;;1.50;1.00;;;;;;;;5050915;28;45415;-73
2022/05/06 13:26:08;;;;;;;;;2.25;2.25;;;;;;;;5056705;28;46183;-75
2022/05/06 13:28:34;;;;;;;;;1.25;1.25;;;;;;;;5052846;28;45306;-75
2022/05/06 13:30:59;;;;;;;;;0.50;0.50;;;;;;;;5058016;28;45250;-75
2022/05/06 13:33:24;;;;;;;;;1.25;1.25;;;;;;;;5051917;28;45530;-75
2022/05/06 13:35:51;;;;;;;;;2.00;2.00;;;;;;;;5056200;28;45677;-75
2022/05/06 13:38:16;;;;;;;;;1.40;1.00;;;;;;;;5055152;28;45419;-75
2022/05/06 13:40:41;;;;;;;;;1.50;1.50;;;;;;;;5065986;28;45936;-75
2022/05/06 13:43:06;;;;;;;;;3.25;3.25;;;;;;;;5056549;28;45264;-75
2022/05/06 13:45:32;;;;;;;;;2.25;2.25;;;;;;;;5052711;28;45401;-75
2022/05/06 13:47:57;;;;;;;;;3.25;3.00;;;;;;;;5059890;28;46120;-75
2022/05/06 13:50:23;;;;;;;;;2.50;2.50;;;;;;;;5057867;28;45679;-75
2022/05/06 13:52:49;;;;;;;;;4.00;2.00;;;;;;;;5060517;28;45280;-75
2022/05/06 13:55:14;;;;;;;;;3.20;3.00;;;;;;;;5059710;28;45463;-74
2022/05/06 14:00:24;;;;;;;;;1.20;1.20;;;;;;;;5053174;28;45610;-74
2022/05/06 14:02:50;;;;;;;;;2.25;2.25;;;;;;;;5060188;28;45332;-76
2022/05/06 14:05:15;;;;;;;;;2.00;2.00;;;;;;;;5048804;28;47028;-74
2022/05/06 14:07:41;;;;;;;;;2.00;2.00;;;;;;;;5053649;28;45333;-75
2022/05/06 14:10:06;;;;;;;;;3.00;3.00;;;;;;;;5056673;28;45383;-74
2022/05/06 14:12:32;;;;;;;;;4.75;2.75;;;;;;;;5061792;28;45447;-75
2022/05/06 14:14:57;;;;;;;;;3.25;3.00;;;;;;;;5055387;28;45336;-75
2022/05/06 14:17:23;;;;;;;;;2.50;2.50;;;;;;;;5061484;28;45547;-75
2022/05/06 14:19:48;;;;;;;;;4.00;2.75;;;;;;;;5054807;28;45406;-75
2022/05/06 14:22:13;;;;;;;;;2.25;2.25;;;;;;;;5061701;28;45315;-75
2022/05/06 14:24:39;;;;;;;;;3.00;3.00;;;;;;;;5054764;28;45327;-75
2022/05/06 14:27:05;;;;;;;;;2.25;2.25;;;;;;;;5061138;28;45389;-75
2022/05/06 14:29:30;;;;;;;;;3.20;3.20;;;;;;;;5054692;28;45438;-75
2022/05/06 14:31:56;;;;;;;;;3.00;3.00;;;;;;;;5061174;28;45483;-74
2022/05/06 14:34:21;;;;;;;;;3.00;3.00;;;;;;;;5054689;28;46352;-74
2022/05/06 14:36:47;;;;;;;;;3.00;3.00;;;;;;;;5056277;28;46041;-74
2022/05/06 14:39:12;;;;;;;;;3.25;3.00;;;;;;;;5053467;28;45396;-74
2022/05/06 14:41:38;;;;;;;;;2.00;2.00;;;;;;;;5057157;28;45280;-74
2022/05/06 14:44:03;;;;;;;;;7.50;4.00;;;;;;;;5055910;28;45423;-75
2022/05/06 14:46:28;;;;;;;;;3.75;1.75;;;;;;;;5058257;28;45234;-74
2022/05/06 14:48:53;;;;;;;;;2.25;2.25;;;;;;;;5057164;28;45308;-75
2022/05/06 14:51:19;;;;;;;;;2.25;2.25;;;;;;;;5060555;28;45583;-75
2022/05/06 14:53:44;;;;;;;;;3.75;3.00;;;;;;;;5053324;28;45624;-75
2022/05/06 14:56:09;;;;;;;;;1.50;1.50;;;;;;;;5058525;28;47172;-75
2022/05/06 14:58:34;;;;;;;;;3.00;2.00;;;;;;;;5057300;28;45737;-75
2022/05/06 15:01:00;;;;;;;;;1.75;1.75;;;;;;;;5060245;28;45271;-74
2022/05/06 15:03:28;;;;;;;;;2.25;2.25;;;;;;;;5050366;28;45376;-74
2022/05/06 15:05:54;;;;;;;;;0.60;0.60;;;;;;;;5056046;28;46371;-73